sensor_id;sensor_type;location;lat;lon;timestamp;temperature;humidity
13326;DHT22;6732;51.044;3.746;2022-12-17T00:00:25;0.20;99.90
13326;DHT22;6732;51.044;3.746;2022-12-17T00:03:09;0.20;99.90
13326;DHT22;6732;51.044;3.746;2022-12-17T00:05:54;0.20;99.90
13326;DHT22;6732;51.044;3.746;2022-12-17T00:08:38;0.20;99.90
13326;DHT22;6732;51.044;3.746;2022-12-17T00:11:23;0.20;99.90
13326;DHT22;6732;51.044;3.746;2022-12-17T00:14:07;0.20;99.90
13326;DHT22;6732;51.044;3.746;2022-12-17T00:16:52;0.20;99.90
13326;DHT22;6732;51.044;3.746;2022-12-17T00:19:37;0.10;99.90
13326;DHT22;6732;51.044;3.746;2022-12-17T00:22:22;0.20;99.90
13326;DHT22;6732;51.044;3.746;2022-12-17T00:25:07;0.20;99.90
13326;DHT22;6732;51.044;3.746;2022-12-17T00:27:51;0.10;99.90
13326;DHT22;6732;51.044;3.746;2022-12-17T00:30:36;0.20;99.90
13326;DHT22;6732;51.044;3.746;2022-12-17T00:33:20;0.10;99.90
13326;DHT22;6732;51.044;3.746;2022-12-17T00:36:06;0.10;99.90
13326;DHT22;6732;51.044;3.746;2022-12-17T00:38:50;0.10;99.90
13326;DHT22;6732;51.044;3.746;2022-12-17T00:41:34;0.10;99.90
13326;DHT22;6732;51.044;3.746;2022-12-17T00:44:19;0.10;99.90
13326;DHT22;6732;51.044;3.746;2022-12-17T00:47:03;0.10;99.90
13326;DHT22;6732;51.044;3.746;2022-12-17T00:49:48;0.10;99.90
13326;DHT22;6732;51.044;3.746;2022-12-17T00:52:46;0.10;99.90
13326;DHT22;6732;51.044;3.746;2022-12-17T00:55:31;0.10;99.90
13326;DHT22;6732;51.044;3.746;2022-12-17T00:58:15;0.10;99.90
13326;DHT22;6732;51.044;3.746;2022-12-17T01:01:00;0.10;99.90
13326;DHT22;6732;51.044;3.746;2022-12-17T01:03:45;0.10;99.90
13326;DHT22;6732;51.044;3.746;2022-12-17T01:06:29;0.10;99.90
13326;DHT22;6732;51.044;3.746;2022-12-17T01:09:14;0.00;99.90
13326;DHT22;6732;51.044;3.746;2022-12-17T01:11:58;0.10;99.90
13326;DHT22;6732;51.044;3.746;2022-12-17T01:14:43;0.00;99.90
13326;DHT22;6732;51.044;3.746;2022-12-17T01:17:27;0.00;99.90
13326;DHT22;6732;51.044;3.746;2022-12-17T01:20:11;0.00;99.90
13326;DHT22;6732;51.044;3.746;2022-12-17T01:23:01;0.00;99.90
13326;DHT22;6732;51.044;3.746;2022-12-17T01:25:55;0.00;99.90
13326;DHT22;6732;51.044;3.746;2022-12-17T01:28:41;0.00;99.90
13326;DHT22;6732;51.044;3.746;2022-12-17T01:31:26;0.00;99.90
13326;DHT22;6732;51.044;3.746;2022-12-17T01:34:10;0.00;99.90
13326;DHT22;6732;51.044;3.746;2022-12-17T01:36:55;-0.10;99.90
13326;DHT22;6732;51.044;3.746;2022-12-17T01:39:39;-0.10;99.90
13326;DHT22;6732;51.044;3.746;2022-12-17T01:42:24;-0.10;99.90
13326;DHT22;6732;51.044;3.746;2022-12-17T01:45:12;-0.10;99.90
13326;DHT22;6732;51.044;3.746;2022-12-17T01:48:11;-0.10;99.90
13326;DHT22;6732;51.044;3.746;2022-12-17T01:50:57;-0.10;99.90
13326;DHT22;6732;51.044;3.746;2022-12-17T01:53:46;-0.10;99.90
13326;DHT22;6732;51.044;3.746;2022-12-17T01:56:33;-0.10;99.90
13326;DHT22;6732;51.044;3.746;2022-12-17T01:59:23;-0.10;99.90
13326;DHT22;6732;51.044;3.746;2022-12-17T02:02:10;-0.10;99.90
13326;DHT22;6732;51.044;3.746;2022-12-17T02:04:54;-0.10;99.90
13326;DHT22;6732;51.044;3.746;2022-12-17T02:14:40;-0.10;99.90
13326;DHT22;6732;51.044;3.746;2022-12-17T02:17:35;-0.20;99.90
13326;DHT22;6732;51.044;3.746;2022-12-17T02:20:45;-0.20;99.90
13326;DHT22;6732;51.044;3.746;2022-12-17T02:26:51;-0.20;99.90
13326;DHT22;6732;51.044;3.746;2022-12-17T02:29:43;-0.20;99.90
13326;DHT22;6732;51.044;3.746;2022-12-17T02:32:29;-0.20;99.90
13326;DHT22;6732;51.044;3.746;2022-12-17T02:35:24;-0.20;99.90
13326;DHT22;6732;51.044;3.746;2022-12-17T02:38:23;-0.20;99.90
13326;DHT22;6732;51.044;3.746;2022-12-17T02:41:12;-0.20;99.90
13326;DHT22;6732;51.044;3.746;2022-12-17T02:43:58;-0.20;99.90
13326;DHT22;6732;51.044;3.746;2022-12-17T02:46:44;-0.20;99.90
13326;DHT22;6732;51.044;3.746;2022-12-17T02:49:30;-0.30;99.90
13326;DHT22;6732;51.044;3.746;2022-12-17T02:52:17;-0.30;99.90
13326;DHT22;6732;51.044;3.746;2022-12-17T02:55:04;-0.30;99.90
13326;DHT22;6732;51.044;3.746;2022-12-17T02:57:48;-0.30;99.90
13326;DHT22;6732;51.044;3.746;2022-12-17T03:00:33;-0.30;99.90
13326;DHT22;6732;51.044;3.746;2022-12-17T03:03:18;-0.30;99.90
13326;DHT22;6732;51.044;3.746;2022-12-17T03:06:02;-0.30;99.90
13326;DHT22;6732;51.044;3.746;2022-12-17T03:08:47;-0.30;99.90
13326;DHT22;6732;51.044;3.746;2022-12-17T03:11:31;-0.30;99.90
13326;DHT22;6732;51.044;3.746;2022-12-17T03:14:16;-0.30;99.90
13326;DHT22;6732;51.044;3.746;2022-12-17T03:17:01;-0.30;99.90
13326;DHT22;6732;51.044;3.746;2022-12-17T03:19:45;-0.30;99.90
13326;DHT22;6732;51.044;3.746;2022-12-17T03:22:29;-0.30;99.90
13326;DHT22;6732;51.044;3.746;2022-12-17T03:25:14;-0.30;99.90
13326;DHT22;6732;51.044;3.746;2022-12-17T03:28:03;-0.30;99.90
13326;DHT22;6732;51.044;3.746;2022-12-17T03:30:48;-0.40;99.90
13326;DHT22;6732;51.044;3.746;2022-12-17T03:33:32;-0.40;99.90
13326;DHT22;6732;51.044;3.746;2022-12-17T03:36:17;-0.40;99.90
13326;DHT22;6732;51.044;3.746;2022-12-17T03:39:02;-0.30;99.90
13326;DHT22;6732;51.044;3.746;2022-12-17T03:41:47;-0.40;99.90
13326;DHT22;6732;51.044;3.746;2022-12-17T03:44:31;-0.40;99.90
13326;DHT22;6732;51.044;3.746;2022-12-17T03:47:16;-0.40;99.90
13326;DHT22;6732;51.044;3.746;2022-12-17T03:50:00;-0.40;99.90
13326;DHT22;6732;51.044;3.746;2022-12-17T03:52:45;-0.40;99.90
13326;DHT22;6732;51.044;3.746;2022-12-17T03:55:30;-0.40;99.90
13326;DHT22;6732;51.044;3.746;2022-12-17T03:58:15;-0.40;99.90
13326;DHT22;6732;51.044;3.746;2022-12-17T04:00:59;-0.40;99.90
13326;DHT22;6732;51.044;3.746;2022-12-17T04:03:44;-0.40;99.90
13326;DHT22;6732;51.044;3.746;2022-12-17T04:06:28;-0.40;99.90
13326;DHT22;6732;51.044;3.746;2022-12-17T04:09:13;-0.40;99.90
13326;DHT22;6732;51.044;3.746;2022-12-17T04:11:58;-0.40;99.90
13326;DHT22;6732;51.044;3.746;2022-12-17T04:14:42;-0.50;99.90
13326;DHT22;6732;51.044;3.746;2022-12-17T04:17:27;-0.40;99.90
13326;DHT22;6732;51.044;3.746;2022-12-17T04:20:11;-0.50;99.90
13326;DHT22;6732;51.044;3.746;2022-12-17T04:22:56;-0.50;99.90
13326;DHT22;6732;51.044;3.746;2022-12-17T04:25:40;-0.50;99.90
13326;DHT22;6732;51.044;3.746;2022-12-17T04:28:25;-0.50;99.90
13326;DHT22;6732;51.044;3.746;2022-12-17T04:31:09;-0.50;99.90
13326;DHT22;6732;51.044;3.746;2022-12-17T04:33:53;-0.50;99.90
13326;DHT22;6732;51.044;3.746;2022-12-17T04:36:42;-0.50;99.90
13326;DHT22;6732;51.044;3.746;2022-12-17T04:39:27;-0.50;99.90
13326;DHT22;6732;51.044;3.746;2022-12-17T04:42:11;-0.50;99.90
13326;DHT22;6732;51.044;3.746;2022-12-17T04:44:55;-0.50;99.90
13326;DHT22;6732;51.044;3.746;2022-12-17T04:47:40;-0.50;99.90
13326;DHT22;6732;51.044;3.746;2022-12-17T04:50:24;-0.50;99.90
13326;DHT22;6732;51.044;3.746;2022-12-17T04:53:09;-0.50;99.90
13326;DHT22;6732;51.044;3.746;2022-12-17T04:55:55;-0.50;99.90
13326;DHT22;6732;51.044;3.746;2022-12-17T04:58:40;-0.50;99.90
13326;DHT22;6732;51.044;3.746;2022-12-17T05:01:25;-0.50;99.90
13326;DHT22;6732;51.044;3.746;2022-12-17T05:04:09;-0.50;99.90
13326;DHT22;6732;51.044;3.746;2022-12-17T05:06:53;-0.50;99.90
13326;DHT22;6732;51.044;3.746;2022-12-17T05:09:38;-0.60;99.90
13326;DHT22;6732;51.044;3.746;2022-12-17T05:12:23;-0.50;99.90
13326;DHT22;6732;51.044;3.746;2022-12-17T05:15:07;-0.60;99.90
13326;DHT22;6732;51.044;3.746;2022-12-17T05:17:52;-0.60;99.90
13326;DHT22;6732;51.044;3.746;2022-12-17T05:20:36;-0.60;99.90
13326;DHT22;6732;51.044;3.746;2022-12-17T05:23:20;-0.60;99.90
13326;DHT22;6732;51.044;3.746;2022-12-17T05:26:07;-0.60;99.90
13326;DHT22;6732;51.044;3.746;2022-12-17T05:28:54;-0.60;99.90
13326;DHT22;6732;51.044;3.746;2022-12-17T05:31:38;-0.60;99.90
13326;DHT22;6732;51.044;3.746;2022-12-17T05:34:23;-0.60;99.90
13326;DHT22;6732;51.044;3.746;2022-12-17T05:37:07;-0.60;99.90
13326;DHT22;6732;51.044;3.746;2022-12-17T05:39:52;-0.60;99.90
13326;DHT22;6732;51.044;3.746;2022-12-17T05:42:36;-0.60;99.90
13326;DHT22;6732;51.044;3.746;2022-12-17T05:45:21;-0.60;99.90
13326;DHT22;6732;51.044;3.746;2022-12-17T05:48:05;-0.60;99.90
13326;DHT22;6732;51.044;3.746;2022-12-17T05:50:50;-0.60;99.90
13326;DHT22;6732;51.044;3.746;2022-12-17T05:53:35;-0.60;99.90
13326;DHT22;6732;51.044;3.746;2022-12-17T05:56:19;-0.60;99.90
13326;DHT22;6732;51.044;3.746;2022-12-17T05:59:04;-0.60;99.90
13326;DHT22;6732;51.044;3.746;2022-12-17T06:01:49;-0.70;99.90
13326;DHT22;6732;51.044;3.746;2022-12-17T06:04:33;-0.70;99.90
13326;DHT22;6732;51.044;3.746;2022-12-17T06:07:17;-0.70;99.90
13326;DHT22;6732;51.044;3.746;2022-12-17T06:10:02;-0.70;99.90
13326;DHT22;6732;51.044;3.746;2022-12-17T06:12:56;-0.70;99.90
13326;DHT22;6732;51.044;3.746;2022-12-17T06:15:40;-0.70;99.90
13326;DHT22;6732;51.044;3.746;2022-12-17T06:18:25;-0.70;99.90
13326;DHT22;6732;51.044;3.746;2022-12-17T06:21:10;-0.70;99.90
13326;DHT22;6732;51.044;3.746;2022-12-17T06:23:54;-0.70;99.90
13326;DHT22;6732;51.044;3.746;2022-12-17T06:26:38;-0.70;99.90
13326;DHT22;6732;51.044;3.746;2022-12-17T06:29:40;-0.70;99.90
13326;DHT22;6732;51.044;3.746;2022-12-17T06:32:24;-0.70;99.90
13326;DHT22;6732;51.044;3.746;2022-12-17T06:35:09;-0.70;99.90
13326;DHT22;6732;51.044;3.746;2022-12-17T06:38:02;-0.70;99.90
13326;DHT22;6732;51.044;3.746;2022-12-17T06:41:01;-0.70;99.90
13326;DHT22;6732;51.044;3.746;2022-12-17T06:43:46;-0.80;99.90
13326;DHT22;6732;51.044;3.746;2022-12-17T06:46:30;-0.80;99.90
13326;DHT22;6732;51.044;3.746;2022-12-17T06:49:14;-0.80;99.90
13326;DHT22;6732;51.044;3.746;2022-12-17T06:52:00;-0.80;99.90
13326;DHT22;6732;51.044;3.746;2022-12-17T06:54:44;-0.80;99.90
13326;DHT22;6732;51.044;3.746;2022-12-17T06:57:29;-0.80;99.90
13326;DHT22;6732;51.044;3.746;2022-12-17T07:00:14;-0.80;99.90
13326;DHT22;6732;51.044;3.746;2022-12-17T07:02:58;-0.80;99.90
13326;DHT22;6732;51.044;3.746;2022-12-17T07:05:43;-0.80;99.90
13326;DHT22;6732;51.044;3.746;2022-12-17T07:08:27;-0.80;99.90
13326;DHT22;6732;51.044;3.746;2022-12-17T07:11:11;-0.80;99.90
13326;DHT22;6732;51.044;3.746;2022-12-17T07:13:56;-0.80;99.90
13326;DHT22;6732;51.044;3.746;2022-12-17T07:16:40;-0.80;99.90
13326;DHT22;6732;51.044;3.746;2022-12-17T07:19:25;-0.80;99.90
13326;DHT22;6732;51.044;3.746;2022-12-17T07:22:10;-0.80;99.90
13326;DHT22;6732;51.044;3.746;2022-12-17T07:24:54;-0.80;99.90
13326;DHT22;6732;51.044;3.746;2022-12-17T07:27:39;-0.80;99.90
13326;DHT22;6732;51.044;3.746;2022-12-17T07:30:23;-0.80;99.90
13326;DHT22;6732;51.044;3.746;2022-12-17T07:33:09;-0.90;99.90
13326;DHT22;6732;51.044;3.746;2022-12-17T07:35:54;-0.90;99.90
13326;DHT22;6732;51.044;3.746;2022-12-17T07:38:39;-0.80;99.90
13326;DHT22;6732;51.044;3.746;2022-12-17T07:41:23;-0.90;99.90
13326;DHT22;6732;51.044;3.746;2022-12-17T07:44:08;-0.80;99.90
13326;DHT22;6732;51.044;3.746;2022-12-17T07:46:52;-0.90;99.90
13326;DHT22;6732;51.044;3.746;2022-12-17T07:49:37;-0.90;99.90
13326;DHT22;6732;51.044;3.746;2022-12-17T07:52:21;-0.90;99.90
13326;DHT22;6732;51.044;3.746;2022-12-17T07:55:06;-0.90;99.90
13326;DHT22;6732;51.044;3.746;2022-12-17T07:58:00;-0.80;99.90
13326;DHT22;6732;51.044;3.746;2022-12-17T08:00:45;-0.80;99.90
13326;DHT22;6732;51.044;3.746;2022-12-17T08:03:29;-0.90;99.90
13326;DHT22;6732;51.044;3.746;2022-12-17T08:06:14;-0.90;99.90
13326;DHT22;6732;51.044;3.746;2022-12-17T08:08:58;-0.90;99.90
13326;DHT22;6732;51.044;3.746;2022-12-17T08:11:43;-0.90;99.90
13326;DHT22;6732;51.044;3.746;2022-12-17T08:14:27;-0.80;99.90
13326;DHT22;6732;51.044;3.746;2022-12-17T08:17:12;-0.90;99.90
13326;DHT22;6732;51.044;3.746;2022-12-17T08:19:57;-0.80;99.90
13326;DHT22;6732;51.044;3.746;2022-12-17T08:22:41;-0.80;99.90
13326;DHT22;6732;51.044;3.746;2022-12-17T08:25:26;-0.90;99.90
13326;DHT22;6732;51.044;3.746;2022-12-17T08:28:10;-0.90;99.90
13326;DHT22;6732;51.044;3.746;2022-12-17T08:30:55;-0.90;99.90
13326;DHT22;6732;51.044;3.746;2022-12-17T08:33:40;-0.90;99.90
13326;DHT22;6732;51.044;3.746;2022-12-17T08:36:24;-0.90;99.90
13326;DHT22;6732;51.044;3.746;2022-12-17T08:39:09;-0.80;99.90
13326;DHT22;6732;51.044;3.746;2022-12-17T08:41:54;-0.80;99.90
13326;DHT22;6732;51.044;3.746;2022-12-17T08:44:39;-0.80;99.90
13326;DHT22;6732;51.044;3.746;2022-12-17T08:47:23;-0.80;99.90
13326;DHT22;6732;51.044;3.746;2022-12-17T08:50:08;-0.80;99.90
13326;DHT22;6732;51.044;3.746;2022-12-17T08:53:00;-0.80;99.90
13326;DHT22;6732;51.044;3.746;2022-12-17T08:55:45;-0.80;99.90
13326;DHT22;6732;51.044;3.746;2022-12-17T08:58:30;-0.80;99.90
13326;DHT22;6732;51.044;3.746;2022-12-17T09:01:14;-0.80;99.90
13326;DHT22;6732;51.044;3.746;2022-12-17T09:04:03;-0.80;99.90
13326;DHT22;6732;51.044;3.746;2022-12-17T09:06:48;-0.80;99.90
13326;DHT22;6732;51.044;3.746;2022-12-17T09:09:33;-0.80;99.90
13326;DHT22;6732;51.044;3.746;2022-12-17T09:12:17;-0.80;99.90
13326;DHT22;6732;51.044;3.746;2022-12-17T09:15:02;-0.80;99.90
13326;DHT22;6732;51.044;3.746;2022-12-17T09:17:49;-0.70;99.90
13326;DHT22;6732;51.044;3.746;2022-12-17T09:20:33;-0.80;99.90
13326;DHT22;6732;51.044;3.746;2022-12-17T09:23:18;-0.70;99.90
13326;DHT22;6732;51.044;3.746;2022-12-17T09:26:03;-0.80;99.90
13326;DHT22;6732;51.044;3.746;2022-12-17T09:28:51;-0.70;99.90
13326;DHT22;6732;51.044;3.746;2022-12-17T09:31:36;-0.70;99.90
13326;DHT22;6732;51.044;3.746;2022-12-17T09:34:20;-0.70;99.90
13326;DHT22;6732;51.044;3.746;2022-12-17T09:37:05;-0.70;99.90
13326;DHT22;6732;51.044;3.746;2022-12-17T09:39:50;-0.70;99.90
13326;DHT22;6732;51.044;3.746;2022-12-17T09:42:44;-0.60;99.90
13326;DHT22;6732;51.044;3.746;2022-12-17T09:45:37;-0.60;99.90
13326;DHT22;6732;51.044;3.746;2022-12-17T09:51:28;-0.50;99.90
13326;DHT22;6732;51.044;3.746;2022-12-17T09:57:27;-0.50;99.90
13326;DHT22;6732;51.044;3.746;2022-12-17T10:00:18;-0.50;99.90
13326;DHT22;6732;51.044;3.746;2022-12-17T10:03:19;-0.50;99.90
13326;DHT22;6732;51.044;3.746;2022-12-17T10:06:11;-0.40;99.90
13326;DHT22;6732;51.044;3.746;2022-12-17T10:09:17;-0.40;99.90
13326;DHT22;6732;51.044;3.746;2022-12-17T10:12:12;-0.40;99.90
13326;DHT22;6732;51.044;3.746;2022-12-17T10:14:57;-0.40;99.90
13326;DHT22;6732;51.044;3.746;2022-12-17T10:17:42;-0.40;99.90
13326;DHT22;6732;51.044;3.746;2022-12-17T10:23:41;-0.40;99.90
13326;DHT22;6732;51.044;3.746;2022-12-17T10:26:31;-0.30;99.90
13326;DHT22;6732;51.044;3.746;2022-12-17T10:29:21;-0.30;99.90
13326;DHT22;6732;51.044;3.746;2022-12-17T10:35:19;-0.30;99.90
13326;DHT22;6732;51.044;3.746;2022-12-17T10:38:24;-0.30;99.90
13326;DHT22;6732;51.044;3.746;2022-12-17T10:41:22;-0.20;99.90
13326;DHT22;6732;51.044;3.746;2022-12-17T10:44:30;-0.20;99.90
13326;DHT22;6732;51.044;3.746;2022-12-17T10:47:18;-0.20;99.90
13326;DHT22;6732;51.044;3.746;2022-12-17T10:50:15;-0.20;99.90
13326;DHT22;6732;51.044;3.746;2022-12-17T10:53:01;-0.10;99.90
13326;DHT22;6732;51.044;3.746;2022-12-17T10:55:55;-0.10;99.90
13326;DHT22;6732;51.044;3.746;2022-12-17T10:58:46;-0.10;99.90
13326;DHT22;6732;51.044;3.746;2022-12-17T11:01:32;-0.10;99.90
13326;DHT22;6732;51.044;3.746;2022-12-17T11:04:31;-0.10;99.90
13326;DHT22;6732;51.044;3.746;2022-12-17T11:07:36;0.00;99.90
13326;DHT22;6732;51.044;3.746;2022-12-17T11:10:31;0.00;99.90
13326;DHT22;6732;51.044;3.746;2022-12-17T11:13:39;0.00;99.90
13326;DHT22;6732;51.044;3.746;2022-12-17T11:16:45;0.10;99.90
13326;DHT22;6732;51.044;3.746;2022-12-17T11:22:28;0.10;99.90
13326;DHT22;6732;51.044;3.746;2022-12-17T11:28:37;0.10;99.90
13326;DHT22;6732;51.044;3.746;2022-12-17T11:32:03;0.20;99.90
13326;DHT22;6732;51.044;3.746;2022-12-17T11:47:46;0.40;99.90
13326;DHT22;6732;51.044;3.746;2022-12-17T11:51:04;0.50;99.90
13326;DHT22;6732;51.044;3.746;2022-12-17T12:00:20;0.50;99.90
13326;DHT22;6732;51.044;3.746;2022-12-17T12:28:04;0.80;99.90
13326;DHT22;6732;51.044;3.746;2022-12-17T12:33:56;0.80;99.90
13326;DHT22;6732;51.044;3.746;2022-12-17T12:36:43;0.80;99.90
13326;DHT22;6732;51.044;3.746;2022-12-17T12:39:46;0.80;99.90
13326;DHT22;6732;51.044;3.746;2022-12-17T12:43:10;0.90;99.90
13326;DHT22;6732;51.044;3.746;2022-12-17T12:51:46;0.90;99.90
13326;DHT22;6732;51.044;3.746;2022-12-17T12:57:39;1.00;99.90
13326;DHT22;6732;51.044;3.746;2022-12-17T13:03:38;1.00;99.90
13326;DHT22;6732;51.044;3.746;2022-12-17T13:12:07;1.10;99.90
13326;DHT22;6732;51.044;3.746;2022-12-17T13:14:54;1.10;99.90
13326;DHT22;6732;51.044;3.746;2022-12-17T13:17:31;1.10;99.90
13326;DHT22;6732;51.044;3.746;2022-12-17T13:20:22;1.10;99.90
13326;DHT22;6732;51.044;3.746;2022-12-17T13:23:12;1.10;99.90
13326;DHT22;6732;51.044;3.746;2022-12-17T13:25:40;1.10;99.90
13326;DHT22;6732;51.044;3.746;2022-12-17T13:28:27;1.20;99.90
13326;DHT22;6732;51.044;3.746;2022-12-17T13:31:24;1.20;99.90
13326;DHT22;6732;51.044;3.746;2022-12-17T13:37:09;1.20;99.90
13326;DHT22;6732;51.044;3.746;2022-12-17T13:40:17;1.20;99.90
13326;DHT22;6732;51.044;3.746;2022-12-17T13:42:57;1.20;99.90
13326;DHT22;6732;51.044;3.746;2022-12-17T13:45:25;1.20;99.90
13326;DHT22;6732;51.044;3.746;2022-12-17T13:47:57;1.20;99.90
13326;DHT22;6732;51.044;3.746;2022-12-17T13:50:28;1.20;99.90
13326;DHT22;6732;51.044;3.746;2022-12-17T13:53:08;1.20;99.90
13326;DHT22;6732;51.044;3.746;2022-12-17T13:55:34;1.20;99.90
13326;DHT22;6732;51.044;3.746;2022-12-17T13:58:00;1.20;99.90
13326;DHT22;6732;51.044;3.746;2022-12-17T14:00:29;1.20;99.90
13326;DHT22;6732;51.044;3.746;2022-12-17T14:02:55;1.20;99.90
13326;DHT22;6732;51.044;3.746;2022-12-17T14:05:34;1.20;99.90
13326;DHT22;6732;51.044;3.746;2022-12-17T14:08:03;1.20;99.90
13326;DHT22;6732;51.044;3.746;2022-12-17T14:10:32;1.20;99.90
13326;DHT22;6732;51.044;3.746;2022-12-17T14:13:12;1.20;99.90
13326;DHT22;6732;51.044;3.746;2022-12-17T14:15:50;1.20;99.90
13326;DHT22;6732;51.044;3.746;2022-12-17T14:18:19;1.20;99.90
13326;DHT22;6732;51.044;3.746;2022-12-17T14:20:54;1.20;99.90
13326;DHT22;6732;51.044;3.746;2022-12-17T14:23:27;1.20;99.90
13326;DHT22;6732;51.044;3.746;2022-12-17T14:25:56;1.20;99.90
13326;DHT22;6732;51.044;3.746;2022-12-17T14:28:32;1.20;99.90
13326;DHT22;6732;51.044;3.746;2022-12-17T14:33:41;1.20;99.90
13326;DHT22;6732;51.044;3.746;2022-12-17T14:36:22;1.20;99.90
13326;DHT22;6732;51.044;3.746;2022-12-17T14:41:20;1.10;99.90
13326;DHT22;6732;51.044;3.746;2022-12-17T14:44:05;1.10;99.90
13326;DHT22;6732;51.044;3.746;2022-12-17T14:46:32;1.20;99.90
13326;DHT22;6732;51.044;3.746;2022-12-17T14:49:01;1.10;99.90
13326;DHT22;6732;51.044;3.746;2022-12-17T14:51:37;1.10;99.90
13326;DHT22;6732;51.044;3.746;2022-12-17T14:56:38;1.10;99.90
13326;DHT22;6732;51.044;3.746;2022-12-17T14:59:21;1.10;99.90
13326;DHT22;6732;51.044;3.746;2022-12-17T15:01:47;1.10;99.90
13326;DHT22;6732;51.044;3.746;2022-12-17T15:04:15;1.00;99.90
13326;DHT22;6732;51.044;3.746;2022-12-17T15:06:41;1.00;99.90
13326;DHT22;6732;51.044;3.746;2022-12-17T15:09:09;1.00;99.90
13326;DHT22;6732;51.044;3.746;2022-12-17T15:11:36;1.00;99.90
13326;DHT22;6732;51.044;3.746;2022-12-17T15:14:02;1.00;99.90
13326;DHT22;6732;51.044;3.746;2022-12-17T15:16:28;1.00;99.90
13326;DHT22;6732;51.044;3.746;2022-12-17T15:18:54;1.00;99.90
13326;DHT22;6732;51.044;3.746;2022-12-17T15:21:20;1.00;99.90
13326;DHT22;6732;51.044;3.746;2022-12-17T15:23:47;1.00;99.90
13326;DHT22;6732;51.044;3.746;2022-12-17T15:26:14;0.90;99.90
13326;DHT22;6732;51.044;3.746;2022-12-17T15:28:41;0.90;99.90
13326;DHT22;6732;51.044;3.746;2022-12-17T15:31:09;0.90;99.90
13326;DHT22;6732;51.044;3.746;2022-12-17T15:33:36;0.90;99.90
13326;DHT22;6732;51.044;3.746;2022-12-17T15:36:02;0.90;99.90
13326;DHT22;6732;51.044;3.746;2022-12-17T15:38:28;0.90;99.90
13326;DHT22;6732;51.044;3.746;2022-12-17T15:40:54;0.90;99.90
13326;DHT22;6732;51.044;3.746;2022-12-17T15:43:20;0.90;99.90
13326;DHT22;6732;51.044;3.746;2022-12-17T15:45:48;0.90;99.90
13326;DHT22;6732;51.044;3.746;2022-12-17T15:48:17;0.90;99.90
13326;DHT22;6732;51.044;3.746;2022-12-17T15:50:44;0.80;99.90
13326;DHT22;6732;51.044;3.746;2022-12-17T15:53:10;0.80;99.90
13326;DHT22;6732;51.044;3.746;2022-12-17T15:55:37;0.80;99.90
13326;DHT22;6732;51.044;3.746;2022-12-17T15:58:03;0.80;99.90
13326;DHT22;6732;51.044;3.746;2022-12-17T16:00:30;0.80;99.90
13326;DHT22;6732;51.044;3.746;2022-12-17T16:02:55;0.80;99.90
13326;DHT22;6732;51.044;3.746;2022-12-17T16:05:22;0.80;99.90
13326;DHT22;6732;51.044;3.746;2022-12-17T16:07:49;0.80;99.90
13326;DHT22;6732;51.044;3.746;2022-12-17T16:10:15;0.80;99.90
13326;DHT22;6732;51.044;3.746;2022-12-17T16:12:42;0.80;99.90
13326;DHT22;6732;51.044;3.746;2022-12-17T16:15:08;0.80;99.90
13326;DHT22;6732;51.044;3.746;2022-12-17T16:17:35;0.70;99.90
13326;DHT22;6732;51.044;3.746;2022-12-17T16:20:02;0.70;99.90
13326;DHT22;6732;51.044;3.746;2022-12-17T16:22:28;0.70;99.90
13326;DHT22;6732;51.044;3.746;2022-12-17T16:24:53;0.70;99.90
13326;DHT22;6732;51.044;3.746;2022-12-17T16:27:19;0.70;99.90
13326;DHT22;6732;51.044;3.746;2022-12-17T16:29:46;0.70;99.90
13326;DHT22;6732;51.044;3.746;2022-12-17T16:32:14;0.70;99.90
13326;DHT22;6732;51.044;3.746;2022-12-17T16:34:39;0.70;99.90
13326;DHT22;6732;51.044;3.746;2022-12-17T16:37:05;0.70;99.90
13326;DHT22;6732;51.044;3.746;2022-12-17T16:39:31;0.70;99.90
13326;DHT22;6732;51.044;3.746;2022-12-17T16:41:58;0.70;99.90
13326;DHT22;6732;51.044;3.746;2022-12-17T16:44:23;0.70;99.90
13326;DHT22;6732;51.044;3.746;2022-12-17T16:46:49;0.60;99.90
13326;DHT22;6732;51.044;3.746;2022-12-17T16:49:19;0.60;99.90
13326;DHT22;6732;51.044;3.746;2022-12-17T16:51:48;0.70;99.90
13326;DHT22;6732;51.044;3.746;2022-12-17T16:54:17;0.60;99.90
13326;DHT22;6732;51.044;3.746;2022-12-17T16:56:43;0.70;99.90
13326;DHT22;6732;51.044;3.746;2022-12-17T16:59:10;0.60;99.90
13326;DHT22;6732;51.044;3.746;2022-12-17T17:01:38;0.60;99.90
13326;DHT22;6732;51.044;3.746;2022-12-17T17:04:05;0.60;99.90
13326;DHT22;6732;51.044;3.746;2022-12-17T17:06:36;0.60;99.90
13326;DHT22;6732;51.044;3.746;2022-12-17T17:09:03;0.60;99.90
13326;DHT22;6732;51.044;3.746;2022-12-17T17:11:29;0.60;99.90
13326;DHT22;6732;51.044;3.746;2022-12-17T17:13:55;0.60;99.90
13326;DHT22;6732;51.044;3.746;2022-12-17T17:16:22;0.60;99.90
13326;DHT22;6732;51.044;3.746;2022-12-17T17:18:49;0.60;99.90
13326;DHT22;6732;51.044;3.746;2022-12-17T17:21:23;0.60;99.90
13326;DHT22;6732;51.044;3.746;2022-12-17T17:23:55;0.60;99.90
13326;DHT22;6732;51.044;3.746;2022-12-17T17:26:22;0.60;99.90
13326;DHT22;6732;51.044;3.746;2022-12-17T17:28:48;0.60;99.90
13326;DHT22;6732;51.044;3.746;2022-12-17T17:31:15;0.60;99.90
13326;DHT22;6732;51.044;3.746;2022-12-17T17:33:44;0.60;99.90
13326;DHT22;6732;51.044;3.746;2022-12-17T17:36:19;0.60;99.90
13326;DHT22;6732;51.044;3.746;2022-12-17T17:38:46;0.60;99.90
13326;DHT22;6732;51.044;3.746;2022-12-17T17:41:15;0.60;99.90
13326;DHT22;6732;51.044;3.746;2022-12-17T17:43:41;0.60;99.90
13326;DHT22;6732;51.044;3.746;2022-12-17T17:46:13;0.60;99.90
13326;DHT22;6732;51.044;3.746;2022-12-17T17:48:40;0.60;99.90
13326;DHT22;6732;51.044;3.746;2022-12-17T17:51:14;0.60;99.90
13326;DHT22;6732;51.044;3.746;2022-12-17T17:53:41;0.60;99.90
13326;DHT22;6732;51.044;3.746;2022-12-17T17:56:10;0.60;99.90
13326;DHT22;6732;51.044;3.746;2022-12-17T17:58:44;0.60;99.90
13326;DHT22;6732;51.044;3.746;2022-12-17T18:01:13;0.60;99.90
13326;DHT22;6732;51.044;3.746;2022-12-17T18:03:39;0.50;99.90
13326;DHT22;6732;51.044;3.746;2022-12-17T18:06:07;0.50;99.90
13326;DHT22;6732;51.044;3.746;2022-12-17T18:08:35;0.50;99.90
13326;DHT22;6732;51.044;3.746;2022-12-17T18:11:03;0.50;99.90
13326;DHT22;6732;51.044;3.746;2022-12-17T18:13:30;0.50;99.90
13326;DHT22;6732;51.044;3.746;2022-12-17T18:16:15;0.50;99.90
13326;DHT22;6732;51.044;3.746;2022-12-17T18:18:41;0.50;99.90
13326;DHT22;6732;51.044;3.746;2022-12-17T18:21:12;0.50;99.90
13326;DHT22;6732;51.044;3.746;2022-12-17T18:23:39;0.50;99.90
13326;DHT22;6732;51.044;3.746;2022-12-17T18:26:11;0.50;99.90
13326;DHT22;6732;51.044;3.746;2022-12-17T18:28:38;0.50;99.90
13326;DHT22;6732;51.044;3.746;2022-12-17T18:31:15;0.50;99.90
13326;DHT22;6732;51.044;3.746;2022-12-17T18:33:43;0.50;99.90
13326;DHT22;6732;51.044;3.746;2022-12-17T18:36:18;0.50;99.90
13326;DHT22;6732;51.044;3.746;2022-12-17T18:38:45;0.50;99.90
13326;DHT22;6732;51.044;3.746;2022-12-17T18:41:16;0.50;99.90
13326;DHT22;6732;51.044;3.746;2022-12-17T18:44:05;0.40;99.90
13326;DHT22;6732;51.044;3.746;2022-12-17T18:46:33;0.40;99.90
13326;DHT22;6732;51.044;3.746;2022-12-17T18:49:02;0.40;99.90
13326;DHT22;6732;51.044;3.746;2022-12-17T18:51:28;0.40;99.90
13326;DHT22;6732;51.044;3.746;2022-12-17T18:53:56;0.40;99.90
13326;DHT22;6732;51.044;3.746;2022-12-17T18:56:22;0.40;99.90
13326;DHT22;6732;51.044;3.746;2022-12-17T18:58:50;0.40;99.90
13326;DHT22;6732;51.044;3.746;2022-12-17T19:01:21;0.40;99.90
13326;DHT22;6732;51.044;3.746;2022-12-17T19:03:47;0.40;99.90
13326;DHT22;6732;51.044;3.746;2022-12-17T19:06:14;0.40;99.90
13326;DHT22;6732;51.044;3.746;2022-12-17T19:08:40;0.40;99.90